createdAt,value
2023-04-28T06:47:32.985Z,968.51
2023-04-28T06:48:33.255Z,968.54
2023-04-28T06:49:33.540Z,968.54
2023-04-28T06:50:33.805Z,968.52
2023-04-28T06:51:34.030Z,968.53
2023-04-28T06:52:39.241Z,968.47
2023-04-28T06:53:35.547Z,968.45
2023-04-28T06:54:34.864Z,968.42
2023-04-28T06:55:35.098Z,968.41
2023-04-28T06:56:35.336Z,968.41
2023-04-28T06:57:35.586Z,968.38
2023-04-28T06:58:35.877Z,968.37
2023-04-28T06:59:35.994Z,968.35
2023-04-28T07:00:36.425Z,968.37
2023-04-28T07:01:36.463Z,968.38
2023-04-28T07:02:36.931Z,968.34
2023-04-28T07:03:36.901Z,968.32
2023-04-28T07:04:37.113Z,968.35
2023-04-28T07:05:37.350Z,968.36
2023-04-28T07:06:37.590Z,968.38
2023-04-28T07:07:37.903Z,968.31
2023-04-28T07:08:38.000Z,968.34
2023-04-28T07:09:38.231Z,968.35
2023-04-28T07:10:38.478Z,968.33
2023-04-28T07:11:38.714Z,968.34
2023-04-28T07:12:38.962Z,968.31
2023-04-28T07:13:39.206Z,968.31
2023-04-28T07:14:39.473Z,968.29
2023-04-28T07:15:39.680Z,968.31
2023-04-28T07:16:40.057Z,968.32
2023-04-28T07:17:40.191Z,968.29
2023-04-28T07:18:40.401Z,968.33
2023-04-28T07:19:40.742Z,968.26
2023-04-28T07:20:40.801Z,968.25
2023-04-28T07:21:41.035Z,968.21
2023-04-28T07:22:41.317Z,968.16
2023-04-28T07:23:41.545Z,968.19
2023-04-28T07:24:41.766Z,968.21
2023-04-28T07:25:41.974Z,968.19
2023-04-28T07:26:42.205Z,968.18
2023-04-28T07:27:42.440Z,968.15
2023-04-28T07:28:42.636Z,968.11
2023-04-28T07:29:42.846Z,968.10
2023-04-28T07:30:43.110Z,968.13
2023-04-28T07:31:43.372Z,968.13
2023-04-28T07:32:43.614Z,968.16
2023-04-28T07:33:43.804Z,968.14
2023-04-28T07:34:44.038Z,968.12
2023-04-28T07:35:44.250Z,968.13
2023-04-28T07:36:44.469Z,968.09
2023-04-28T07:37:44.695Z,968.07
2023-04-28T07:38:44.934Z,968.04
2023-04-28T07:39:45.163Z,968.08
2023-04-28T07:40:45.409Z,968.09
2023-04-28T07:41:45.557Z,968.10
2023-04-28T07:42:45.802Z,968.12
2023-04-28T07:43:46.122Z,968.10
2023-04-28T07:44:46.305Z,968.08
2023-04-28T07:45:46.583Z,968.05
2023-04-28T07:46:46.812Z,968.08
2023-04-28T07:47:47.041Z,968.04
2023-04-28T07:48:47.252Z,968.07
2023-04-28T07:49:47.461Z,968.02
2023-04-28T07:50:47.701Z,968.05
2023-04-28T07:51:47.944Z,968.02
2023-04-28T07:52:48.205Z,968.04
2023-04-28T07:53:48.432Z,968.04
2023-04-28T07:54:48.648Z,968.06
2023-04-28T07:55:48.862Z,968.07
2023-04-28T07:56:49.128Z,968.05
2023-04-28T07:57:49.369Z,968.11
2023-04-28T07:58:49.592Z,968.11
2023-04-28T07:59:49.837Z,968.09
2023-04-28T08:00:50.059Z,968.09
2023-04-28T08:01:50.274Z,968.09
2023-04-28T08:02:50.766Z,968.09
2023-04-28T08:03:50.867Z,968.13
2023-04-28T08:04:51.125Z,968.11
2023-04-28T08:05:51.154Z,968.09
2023-04-28T08:06:51.389Z,968.09
2023-04-28T08:07:51.605Z,968.12
2023-04-28T08:08:51.847Z,968.11
2023-04-28T08:09:53.306Z,968.11
2023-04-28T08:10:52.349Z,968.10
2023-04-28T08:11:52.555Z,968.08
2023-04-28T08:12:52.790Z,968.07
2023-04-28T08:13:53.041Z,968.06
2023-04-28T08:14:53.290Z,968.06
2023-04-28T08:15:53.545Z,968.02
2023-04-28T08:16:53.796Z,968.08
2023-04-28T08:17:54.150Z,968.06
2023-04-28T08:18:54.301Z,968.05
2023-04-28T08:19:54.489Z,968.05
2023-04-28T08:20:54.788Z,968.06
2023-04-28T08:21:55.001Z,968.06
2023-04-28T08:22:55.221Z,968.04
2023-04-28T08:23:55.452Z,968.04
2023-04-28T08:24:55.709Z,968.04
2023-04-28T08:25:55.923Z,968.04
2023-04-28T08:26:56.149Z,968.06
2023-04-28T08:27:57.367Z,968.08
2023-04-28T08:28:56.692Z,968.06
2023-04-28T08:29:56.909Z,968.07
2023-04-28T08:30:57.148Z,968.08
2023-04-28T08:31:57.373Z,968.05
2023-04-28T08:32:57.666Z,968.03
2023-04-28T08:33:57.861Z,968.05
2023-04-28T08:34:58.093Z,968.01
2023-04-28T08:35:58.333Z,968.02
2023-04-28T08:36:58.582Z,968.03
2023-04-28T08:37:58.815Z,967.98
2023-04-28T08:38:59.039Z,968.02
2023-04-28T08:39:59.290Z,968.00
2023-04-28T08:40:59.532Z,968.03
2023-04-28T08:41:59.757Z,968.05
2023-04-28T08:43:00.015Z,968.02
2023-04-28T08:44:00.249Z,968.06
2023-04-28T08:45:00.501Z,968.05
2023-04-28T08:46:00.718Z,968.08
2023-04-28T08:47:01.008Z,968.08
2023-04-28T08:48:01.140Z,968.09
2023-04-28T08:49:01.371Z,968.12
2023-04-28T08:50:01.620Z,968.14
2023-04-28T08:51:01.821Z,968.16
2023-04-28T08:52:02.038Z,968.13
2023-04-28T08:53:02.359Z,968.17
2023-04-28T08:55:02.815Z,968.18
2023-04-28T08:56:03.045Z,968.18
2023-04-28T08:57:03.287Z,968.25
2023-04-28T08:58:03.518Z,968.26
2023-04-28T08:59:03.760Z,968.25
2023-04-28T09:00:03.989Z,968.27
2023-04-28T09:01:04.246Z,968.31
2023-04-28T09:02:04.472Z,968.31
2023-04-28T09:03:04.825Z,968.32
2023-04-28T09:04:05.078Z,968.33
2023-04-28T09:05:05.427Z,968.35
2023-04-28T09:06:05.419Z,968.36
2023-04-28T09:07:05.627Z,968.35
2023-04-28T09:08:05.850Z,968.35
2023-04-28T09:09:06.115Z,968.30
2023-04-28T09:10:06.331Z,968.30
2023-04-28T09:11:06.567Z,968.31
2023-04-28T09:12:06.863Z,968.37
2023-04-28T09:13:07.092Z,968.32
2023-04-28T09:14:07.325Z,968.29
2023-04-28T09:15:07.551Z,968.32
2023-04-28T09:16:07.849Z,968.37
2023-04-28T09:17:08.016Z,968.37
2023-04-28T09:18:08.419Z,968.36
2023-04-28T09:19:08.501Z,968.37
2023-04-28T09:20:08.745Z,968.40
2023-04-28T09:21:08.968Z,968.37
2023-04-28T09:22:24.906Z,968.40
2023-04-28T09:23:10.376Z,968.37
2023-04-28T09:24:09.673Z,968.33
2023-04-28T09:25:09.892Z,968.34
2023-04-28T09:26:10.134Z,968.38
2023-04-28T09:27:10.344Z,968.38
2023-04-28T09:28:10.575Z,968.39
2023-04-28T09:29:10.807Z,968.37
2023-04-28T09:30:11.054Z,968.37
2023-04-28T09:31:11.308Z,968.39
2023-04-28T09:32:11.583Z,968.34
2023-04-28T09:33:11.813Z,968.39
2023-04-28T09:34:13.053Z,968.36
2023-04-28T09:35:12.296Z,968.38
2023-04-28T09:36:12.526Z,968.41
2023-04-28T09:37:12.822Z,968.36
2023-04-28T09:38:12.953Z,968.36
2023-04-28T09:39:13.163Z,968.37
2023-04-28T09:40:13.429Z,968.38
2023-04-28T09:41:13.654Z,968.41
2023-04-28T09:42:13.921Z,968.40
2023-04-28T09:43:21.185Z,968.39
2023-04-28T09:44:15.730Z,968.39
2023-04-28T09:45:14.609Z,968.39
2023-04-28T09:46:14.845Z,968.38
2023-04-28T09:47:15.049Z,968.42
2023-04-28T09:48:15.368Z,968.43
2023-04-28T09:49:15.478Z,968.43
2023-04-28T09:50:15.707Z,968.40
2023-04-28T09:51:15.934Z,968.41
2023-04-28T09:52:16.159Z,968.36
2023-04-28T09:53:16.385Z,968.31
2023-04-28T09:54:16.692Z,968.33
2023-04-28T09:55:16.778Z,968.27
2023-04-28T09:56:17.022Z,968.27
2023-04-28T09:57:17.267Z,968.24
2023-04-28T09:58:17.496Z,968.15
2023-04-28T09:59:17.709Z,968.16
2023-04-28T10:00:17.946Z,968.18
2023-04-28T10:01:18.202Z,968.10
2023-04-28T10:02:41.555Z,968.12
2023-04-28T10:03:22.623Z,968.10
2023-04-28T10:04:18.991Z,968.11
2023-04-28T10:05:19.278Z,968.08
2023-04-28T10:06:19.313Z,968.09
2023-04-28T10:07:19.372Z,968.10
2023-04-28T10:08:19.620Z,968.10
2023-04-28T10:09:19.868Z,968.12
2023-04-28T10:10:20.127Z,968.11
2023-04-28T10:11:20.324Z,968.11
2023-04-28T10:12:20.554Z,968.11
2023-04-28T10:13:20.786Z,968.08
2023-04-28T10:14:21.081Z,968.05
2023-04-28T10:15:21.144Z,968.03
2023-04-28T10:16:21.454Z,968.09
2023-04-28T10:17:21.548Z,968.09
2023-04-28T10:18:21.799Z,968.07
2023-04-28T10:19:22.015Z,968.14
2023-04-28T10:20:22.269Z,968.08
2023-04-28T10:21:22.464Z,968.10
2023-04-28T10:22:22.730Z,968.05
2023-04-28T10:23:22.963Z,968.09
2023-04-28T10:24:23.211Z,968.08
2023-04-28T10:25:23.477Z,968.00
2023-04-28T10:26:23.727Z,967.98
2023-04-28T10:27:23.984Z,967.97
2023-04-28T10:28:24.235Z,967.99
2023-04-28T10:29:24.463Z,967.98
2023-04-28T10:30:28.053Z,967.99
2023-04-28T10:31:24.934Z,967.94
2023-04-28T10:32:25.185Z,967.90
2023-04-28T10:33:25.677Z,967.90
2023-04-28T10:34:25.661Z,967.88
2023-04-28T10:35:25.835Z,967.88
2023-04-28T10:36:35.719Z,967.88
2023-04-28T10:37:27.291Z,967.90
2023-04-28T10:38:26.592Z,967.93
2023-04-28T10:39:26.817Z,967.89
2023-04-28T10:40:27.053Z,967.85
2023-04-28T10:41:27.281Z,967.83
2023-04-28T10:42:27.489Z,967.84
2023-04-28T10:43:27.917Z,967.79
2023-04-28T10:44:27.933Z,967.77
2023-04-28T10:45:28.149Z,967.77
2023-04-28T10:46:28.410Z,967.79
2023-04-28T10:47:28.634Z,967.75
2023-04-28T10:48:28.851Z,967.76
2023-04-28T10:49:29.060Z,967.74
2023-04-28T10:50:38.519Z,967.76
2023-04-28T10:51:30.508Z,967.79
2023-04-28T10:52:29.787Z,967.76
2023-04-28T10:53:30.009Z,967.80
2023-04-28T10:54:30.242Z,967.82
2023-04-28T10:55:30.460Z,967.78
2023-04-28T10:56:30.687Z,967.77
2023-04-28T10:57:30.894Z,967.76
2023-04-28T10:58:31.127Z,967.74
2023-04-28T10:59:31.345Z,967.74
2023-04-28T11:00:31.571Z,967.76
2023-04-28T11:01:31.909Z,967.79
2023-04-28T11:02:32.176Z,967.77
2023-04-28T11:03:32.572Z,967.78
2023-04-28T11:04:32.861Z,967.79
2023-04-28T11:05:32.597Z,967.78
2023-04-28T11:06:32.838Z,967.78
2023-04-28T11:07:33.061Z,967.75
2023-04-28T11:08:33.347Z,967.76
2023-04-28T11:09:33.435Z,967.73
2023-04-28T11:10:33.665Z,967.76
2023-04-28T11:11:33.879Z,967.76
2023-04-28T11:12:34.125Z,967.73
2023-04-28T11:13:34.539Z,967.76
2023-04-28T11:14:34.650Z,967.74
2023-04-28T11:15:34.891Z,967.71
2023-04-28T11:16:35.108Z,967.73
2023-04-28T11:17:35.309Z,967.78
2023-04-28T11:18:35.517Z,967.80
2023-04-28T11:19:35.744Z,967.86
2023-04-28T11:20:35.972Z,967.87
2023-04-28T11:21:36.197Z,967.83
2023-04-28T11:22:36.424Z,967.80
2023-04-28T11:23:36.655Z,967.79
2023-04-28T11:24:36.891Z,967.85
2023-04-28T11:25:37.112Z,967.90
2023-04-28T11:26:37.342Z,967.92
2023-04-28T11:27:37.562Z,967.87
2023-04-28T11:28:37.795Z,967.88
2023-04-28T11:29:38.032Z,967.90
2023-04-28T11:30:38.262Z,967.93
2023-04-28T11:31:38.518Z,967.95
2023-04-28T11:32:38.789Z,967.92
2023-04-28T11:33:38.994Z,967.93
2023-04-28T11:34:39.227Z,967.89
2023-04-28T11:35:39.512Z,967.92
2023-04-28T11:36:39.629Z,967.97
2023-04-28T11:37:39.876Z,967.92
2023-04-28T11:38:40.107Z,967.91
2023-04-28T11:39:40.334Z,967.94
2023-04-28T11:40:40.553Z,967.93
2023-04-28T11:41:40.790Z,967.92
2023-04-28T11:42:41.007Z,967.94
2023-04-28T11:43:47.395Z,967.92
2023-04-28T11:44:42.458Z,967.92
2023-04-28T11:45:41.620Z,967.91
2023-04-28T11:46:41.855Z,967.91
2023-04-28T11:47:42.128Z,967.93
2023-04-28T11:48:42.328Z,967.95
2023-04-28T11:49:42.582Z,967.93
2023-04-28T11:50:42.813Z,967.90
2023-04-28T11:51:43.053Z,967.87
2023-04-28T11:52:43.301Z,967.88
2023-04-28T11:53:43.535Z,967.88
2023-04-28T11:54:43.881Z,967.90
2023-04-28T11:55:44.046Z,967.89
2023-04-28T11:56:44.320Z,967.86
2023-04-28T11:57:44.412Z,967.86
2023-04-28T11:58:44.652Z,967.90
2023-04-28T11:59:44.980Z,967.87
2023-04-28T12:00:45.139Z,967.89
2023-04-28T12:01:45.370Z,967.88
2023-04-28T12:02:45.749Z,967.85
2023-04-28T12:03:45.869Z,967.83
2023-04-28T12:04:45.934Z,967.83
2023-04-28T12:05:46.200Z,967.80
2023-04-28T12:06:46.421Z,967.79
2023-04-28T12:07:46.672Z,967.75
2023-04-28T12:08:46.932Z,967.73
2023-04-28T12:09:47.155Z,967.74
2023-04-28T12:10:47.402Z,967.76
2023-04-28T12:11:47.634Z,967.74
2023-04-28T12:12:52.546Z,967.74
2023-04-28T12:13:49.108Z,967.72
2023-04-28T12:14:48.388Z,967.76
2023-04-28T12:15:48.671Z,967.79
2023-04-28T12:16:48.919Z,967.78
2023-04-28T12:17:49.074Z,967.76
2023-04-28T12:18:49.225Z,967.82
2023-04-28T12:19:49.456Z,967.76
2023-04-28T12:20:49.715Z,967.78
2023-04-28T12:21:49.908Z,967.78
2023-04-28T12:22:50.151Z,967.79
2023-04-28T12:23:50.391Z,967.80
2023-04-28T12:24:50.621Z,967.83
2023-04-28T12:25:50.835Z,967.78
2023-04-28T12:26:51.099Z,967.83
2023-04-28T12:27:51.294Z,967.83
2023-04-28T12:28:51.553Z,967.86
2023-04-28T12:29:51.759Z,967.84
2023-04-28T12:30:51.963Z,967.84
2023-04-28T12:31:52.268Z,967.82
2023-04-28T12:32:52.479Z,967.84
2023-04-28T12:33:52.701Z,967.81
2023-04-28T12:34:52.929Z,967.86
2023-04-28T12:35:53.153Z,967.83
2023-04-28T12:36:53.390Z,967.86
2023-04-28T12:37:53.668Z,967.82
2023-04-28T12:38:53.791Z,967.84
2023-04-28T12:39:54.009Z,967.80
2023-04-28T12:40:54.240Z,967.78
2023-04-28T12:41:54.454Z,967.81
2023-04-28T12:42:54.731Z,967.81
2023-04-28T12:43:54.831Z,967.81
2023-04-28T12:44:55.063Z,967.78
2023-04-28T12:45:55.386Z,967.78
2023-04-28T12:46:55.503Z,967.77
2023-04-28T12:47:55.854Z,967.77
2023-04-28T12:48:55.990Z,967.78
2023-04-28T12:49:56.082Z,967.82
2023-04-28T12:50:56.292Z,967.83
2023-04-28T12:51:56.509Z,967.82
2023-04-28T12:52:56.744Z,967.87
2023-04-28T12:53:56.960Z,967.85
2023-04-28T12:54:57.185Z,967.81
2023-04-28T12:55:57.384Z,967.80
2023-04-28T12:56:57.611Z,967.77
2023-04-28T12:57:57.893Z,967.78
2023-04-28T12:58:58.059Z,967.76
2023-04-28T12:59:59.156Z,967.72
2023-04-28T13:00:58.315Z,967.76
2023-04-28T13:01:58.561Z,967.74
2023-04-28T13:02:58.870Z,967.73
2023-04-28T13:03:59.105Z,967.71
2023-04-28T13:04:59.375Z,967.74
2023-04-28T13:05:59.424Z,967.72
2023-04-28T13:06:59.680Z,967.71
2023-04-28T13:07:59.894Z,967.67
2023-04-28T13:09:00.145Z,967.69
2023-04-28T13:10:00.335Z,967.69
2023-04-28T13:11:02.902Z,967.70
2023-04-28T13:12:00.810Z,967.68
2023-04-28T13:13:01.055Z,967.62
2023-04-28T13:14:01.266Z,967.59
2023-04-28T13:15:01.523Z,967.55
2023-04-28T13:16:01.791Z,967.53
2023-04-28T13:17:01.992Z,967.48
2023-04-28T13:18:02.256Z,967.48
2023-04-28T13:19:02.447Z,967.44
2023-04-28T13:20:03.164Z,967.42
2023-04-28T13:21:02.943Z,967.45
2023-04-28T13:22:03.173Z,967.39
2023-04-28T13:23:03.424Z,967.41
2023-04-28T13:24:03.632Z,967.37
2023-04-28T13:25:03.868Z,967.34
2023-04-28T13:26:04.087Z,967.35
2023-04-28T13:27:04.396Z,967.36
2023-04-28T13:28:04.454Z,967.35
2023-04-28T13:29:04.744Z,967.37
2023-04-28T13:30:04.971Z,967.37
2023-04-28T13:31:05.226Z,967.39
2023-04-28T13:32:05.757Z,967.40
2023-04-28T13:33:05.709Z,967.41
2023-04-28T13:34:05.811Z,967.42
2023-04-28T13:35:06.016Z,967.35
2023-04-28T13:36:06.249Z,967.39
2023-04-28T13:37:06.464Z,967.41
2023-04-28T13:38:06.710Z,967.44
2023-04-28T13:39:06.916Z,967.39
2023-04-28T13:40:07.156Z,967.39
2023-04-28T13:41:07.358Z,967.35
2023-04-28T13:42:07.583Z,967.30
2023-04-28T13:43:07.803Z,967.35
2023-04-28T13:44:08.052Z,967.34
2023-04-28T13:45:08.258Z,967.37
2023-04-28T13:46:08.674Z,967.34
2023-04-28T13:47:08.643Z,967.32
2023-04-28T13:48:08.927Z,967.34
2023-04-28T13:49:09.170Z,967.32
2023-04-28T13:50:09.404Z,967.36
2023-04-28T13:51:09.607Z,967.44
2023-04-28T13:52:09.851Z,967.37
2023-04-28T13:53:10.059Z,967.29
2023-04-28T13:54:10.280Z,967.31
2023-04-28T13:55:10.473Z,967.40
2023-04-28T13:56:10.685Z,967.36
2023-04-28T13:57:10.887Z,967.37
2023-04-28T13:58:11.111Z,967.37
2023-04-28T13:59:11.335Z,967.41
2023-04-28T14:00:11.591Z,967.39
2023-04-28T14:01:11.876Z,967.39
2023-04-28T14:02:12.014Z,967.40
2023-04-28T14:03:12.424Z,967.39
2023-04-28T14:04:12.613Z,967.41
2023-04-28T14:05:12.495Z,967.43
2023-04-28T14:06:12.706Z,967.40
2023-04-28T14:07:12.910Z,967.39
2023-04-28T14:08:13.103Z,967.42
2023-04-28T14:09:13.308Z,967.44
2023-04-28T14:10:13.518Z,967.38
2023-04-28T14:11:13.738Z,967.37
2023-04-28T14:12:13.934Z,967.35
2023-04-28T14:13:14.139Z,967.32
2023-04-28T14:14:14.365Z,967.29
2023-04-28T14:15:14.568Z,967.28
2023-04-28T14:16:14.828Z,967.27
2023-04-28T14:17:14.996Z,967.33
2023-04-28T14:18:15.199Z,967.32
2023-04-28T14:19:15.424Z,967.34
2023-04-28T14:20:15.663Z,967.31
2023-04-28T14:21:15.819Z,967.20
2023-04-28T14:22:16.049Z,967.24
2023-04-28T14:23:17.729Z,967.26
2023-04-28T14:24:20.599Z,967.27
2023-04-28T14:25:16.669Z,967.30
2023-04-28T14:26:16.892Z,967.28
2023-04-28T14:27:17.096Z,967.33
2023-04-28T14:28:17.295Z,967.23
2023-04-28T14:29:17.509Z,967.23
2023-04-28T14:30:17.743Z,967.27
2023-04-28T14:31:17.972Z,967.22
2023-04-28T14:32:18.182Z,967.17
2023-04-28T14:33:18.403Z,967.16
2023-04-28T14:34:18.638Z,967.19
2023-04-28T14:35:18.849Z,967.23
2023-04-28T14:36:19.091Z,967.22
2023-04-28T14:37:19.244Z,967.22
2023-04-28T14:38:19.433Z,967.16
2023-04-28T14:39:19.671Z,967.17
2023-04-28T14:40:19.908Z,967.20
2023-04-28T14:41:20.108Z,967.15
2023-04-28T14:42:20.398Z,967.15
2023-04-28T14:43:20.556Z,967.09
2023-04-28T14:44:20.797Z,967.08
2023-04-28T14:45:21.041Z,967.09
2023-04-28T14:46:21.246Z,967.09
2023-04-28T14:47:21.422Z,967.07
2023-04-28T14:48:21.663Z,967.04
2023-04-28T14:49:21.851Z,967.05
2023-04-28T14:50:22.078Z,967.00
2023-04-28T14:51:22.300Z,966.99
2023-04-28T14:52:22.559Z,966.96
2023-04-28T14:53:22.752Z,967.00
2023-04-28T14:54:22.957Z,966.99
2023-04-28T14:55:23.173Z,967.11
2023-04-28T14:56:23.408Z,967.11
2023-04-28T14:57:23.588Z,967.09
2023-04-28T14:58:23.824Z,967.14
2023-04-28T14:59:24.031Z,967.13
2023-04-28T15:00:24.239Z,967.13
2023-04-28T15:01:24.492Z,967.13
2023-04-28T15:02:25.959Z,967.08
2023-04-28T15:03:24.991Z,967.09
2023-04-28T15:04:25.369Z,967.10
2023-04-28T15:05:25.306Z,967.10
2023-04-28T15:06:25.561Z,967.07
2023-04-28T15:07:25.765Z,966.94
2023-04-28T15:08:27.662Z,966.95
2023-04-28T15:09:26.196Z,966.91
2023-04-28T15:10:26.437Z,966.91
2023-04-28T15:11:26.707Z,966.89
2023-04-28T15:12:26.997Z,966.87
2023-04-28T15:13:27.033Z,966.83
2023-04-28T15:14:27.280Z,966.81
2023-04-28T15:15:27.550Z,966.82
2023-04-28T15:16:27.750Z,966.82
2023-04-28T15:17:27.951Z,966.78
2023-04-28T15:18:28.166Z,966.82
2023-04-28T15:19:28.402Z,966.83
2023-04-28T15:20:29.626Z,966.84
2023-04-28T15:21:28.763Z,966.73
2023-04-28T15:22:29.016Z,966.71
2023-04-28T15:23:29.127Z,966.79
2023-04-28T15:24:29.365Z,966.77
2023-04-28T15:25:29.560Z,966.75
2023-04-28T15:26:30.126Z,966.80
2023-04-28T15:27:29.933Z,966.75
2023-04-28T15:28:30.161Z,966.79
2023-04-28T15:29:30.369Z,966.74
2023-04-28T15:30:30.604Z,966.67
2023-04-28T15:31:30.837Z,966.73
2023-04-28T15:32:31.105Z,966.70
2023-04-28T15:33:31.293Z,966.75
2023-04-28T15:34:31.514Z,966.82
2023-04-28T15:35:31.732Z,966.77
2023-04-28T15:36:31.949Z,966.75
2023-04-28T15:37:32.168Z,966.74
2023-04-28T15:38:32.421Z,966.78
2023-04-28T15:39:32.623Z,966.81
2023-04-28T15:40:32.852Z,966.79
2023-04-28T15:41:33.086Z,966.79
2023-04-28T15:42:33.312Z,966.79
2023-04-28T15:43:33.512Z,966.83
2023-04-28T15:44:33.759Z,966.84
2023-04-28T15:45:34.133Z,966.81
2023-04-28T15:46:34.247Z,966.79
2023-04-28T15:47:34.493Z,966.75
2023-04-28T15:48:34.710Z,966.75
2023-04-28T15:49:34.923Z,966.79
2023-04-28T15:50:35.163Z,966.76
2023-04-28T15:51:35.389Z,966.70
2023-04-28T15:52:35.757Z,966.74
2023-04-28T15:53:35.815Z,966.67
2023-04-28T15:54:36.056Z,966.68
2023-04-28T15:55:36.315Z,966.71
2023-04-28T15:56:36.530Z,966.72
2023-04-28T15:57:36.741Z,966.70
2023-04-28T15:58:36.977Z,966.68
2023-04-28T15:59:37.231Z,966.70
2023-04-28T16:00:37.468Z,966.80
2023-04-28T16:01:37.777Z,966.84
2023-04-28T16:02:38.152Z,966.91
2023-04-28T16:03:38.374Z,966.88
2023-04-28T16:04:38.960Z,966.82
2023-04-28T16:05:38.695Z,966.85
2023-04-28T16:06:38.931Z,966.84
2023-04-28T16:07:39.189Z,966.80
2023-04-28T16:08:39.416Z,966.76
2023-04-28T16:09:39.681Z,966.77
2023-04-28T16:10:39.914Z,966.84
2023-04-28T16:11:40.138Z,966.83
2023-04-28T16:12:40.377Z,966.84
2023-04-28T16:13:40.614Z,966.85
2023-04-28T16:14:40.937Z,966.87
2023-04-28T16:15:41.116Z,966.84
2023-04-28T16:16:41.420Z,966.84
2023-04-28T16:17:41.692Z,966.85
2023-04-28T16:18:41.896Z,966.82
2023-04-28T16:19:42.131Z,966.84
2023-04-28T16:20:42.373Z,966.92
2023-04-28T16:21:42.591Z,966.88
2023-04-28T16:22:42.844Z,966.94
2023-04-28T16:23:43.065Z,966.89
2023-04-28T16:24:43.475Z,966.92
2023-04-28T16:25:43.491Z,966.94
2023-04-28T16:26:43.743Z,966.94
2023-04-28T16:27:43.964Z,966.92
2023-04-28T16:28:44.433Z,966.94
2023-04-28T16:29:44.466Z,966.84
2023-04-28T16:30:44.713Z,966.84
2023-04-28T16:31:45.024Z,966.82
2023-04-28T16:32:45.281Z,966.83
2023-04-28T16:33:45.478Z,966.82
2023-04-28T16:34:45.733Z,966.87
2023-04-28T16:35:45.966Z,966.86
2023-04-28T16:36:46.303Z,966.84
2023-04-28T16:37:46.369Z,966.89
2023-04-28T16:38:46.783Z,966.89
2023-04-28T16:39:46.830Z,966.92
2023-04-28T16:40:47.067Z,966.95
2023-04-28T16:41:47.275Z,966.91
2023-04-28T16:42:47.525Z,966.92
2023-04-28T16:43:47.733Z,966.93
2023-04-28T16:44:48.078Z,966.90
2023-04-28T16:45:48.302Z,966.93
2023-04-28T16:46:48.517Z,966.87
2023-04-28T16:47:48.798Z,966.91
2023-04-28T16:48:49.006Z,966.94
2023-04-28T16:49:49.449Z,966.94
2023-04-28T16:50:49.485Z,966.96
2023-04-28T16:51:49.699Z,966.98
2023-04-28T16:52:49.930Z,966.96
2023-04-28T16:53:50.141Z,966.94
2023-04-28T16:54:50.387Z,966.91
2023-04-28T16:55:50.617Z,966.87
2023-04-28T16:56:50.860Z,966.88
2023-04-28T16:57:51.080Z,966.84
2023-04-28T16:58:51.322Z,966.80
2023-04-28T16:59:51.844Z,966.83
2023-04-28T17:00:51.736Z,966.83
2023-04-28T17:01:51.987Z,966.81
2023-04-28T17:02:52.289Z,966.78
2023-04-28T17:03:52.559Z,966.78
2023-04-28T17:04:52.563Z,966.75
2023-04-28T17:05:52.763Z,966.74
2023-04-28T17:06:53.027Z,966.71
2023-04-28T17:07:53.237Z,966.70
2023-04-28T17:08:53.474Z,966.73
2023-04-28T17:09:54.705Z,966.71
2023-04-28T17:10:53.945Z,966.69
2023-04-28T17:11:54.180Z,966.70
2023-04-28T17:12:54.407Z,966.65
2023-04-28T17:13:54.622Z,966.67
2023-04-28T17:14:54.855Z,966.63
2023-04-28T17:15:55.119Z,966.63
2023-04-28T17:16:55.312Z,966.60
2023-04-28T17:17:55.560Z,966.59
2023-04-28T17:18:55.758Z,966.63
2023-04-28T17:19:55.975Z,966.60
2023-04-28T17:20:56.190Z,966.62
2023-04-28T17:21:56.389Z,966.57
2023-04-28T17:22:56.590Z,966.58
2023-04-28T17:23:56.828Z,966.56
2023-04-28T17:24:57.104Z,966.61
2023-04-28T17:25:57.286Z,966.64
2023-04-28T17:26:57.518Z,966.66
2023-04-28T17:27:57.721Z,966.67
2023-04-28T17:28:57.920Z,966.63
2023-04-28T17:29:58.119Z,966.63
2023-04-28T17:30:58.349Z,966.65
2023-04-28T17:31:58.564Z,966.62
2023-04-28T17:32:58.862Z,966.61
2023-04-28T17:33:58.980Z,966.64
2023-04-28T17:34:59.220Z,966.64
2023-04-28T17:35:59.426Z,966.66
2023-04-28T17:36:59.679Z,966.65
2023-04-28T17:37:59.901Z,966.66
2023-04-28T17:39:00.146Z,966.73
2023-04-28T17:40:00.305Z,966.78
2023-04-28T17:41:00.528Z,966.82
2023-04-28T17:42:00.728Z,966.82
2023-04-28T17:43:00.957Z,966.79
2023-04-28T17:44:01.175Z,966.80
2023-04-28T17:45:01.375Z,966.83
2023-04-28T17:46:01.590Z,966.85
2023-04-28T17:47:01.872Z,966.82
2023-04-28T17:48:02.017Z,966.84
2023-04-28T17:49:02.218Z,966.82
2023-04-28T17:50:02.442Z,966.83
2023-04-28T17:51:02.653Z,966.85
2023-04-28T17:52:02.934Z,966.84
2023-04-28T17:53:03.109Z,966.80
2023-04-28T17:54:03.346Z,966.81
2023-04-28T17:55:03.562Z,966.81
2023-04-28T17:56:03.798Z,966.82
2023-04-28T17:57:03.993Z,966.81
2023-04-28T17:58:04.222Z,966.80
2023-04-28T17:59:04.415Z,966.78
2023-04-28T18:00:04.640Z,966.76
2023-04-28T18:01:04.857Z,966.83
2023-04-28T18:02:05.115Z,966.84
2023-04-28T18:03:05.436Z,966.85
2023-04-28T18:04:05.557Z,966.83
2023-04-28T18:05:05.786Z,966.84
2023-04-28T18:06:05.925Z,966.87
2023-04-28T18:07:06.115Z,966.89
2023-04-28T18:08:06.335Z,966.85
2023-04-28T18:09:06.542Z,966.90
2023-04-28T18:10:06.771Z,966.79
2023-04-28T18:11:06.995Z,966.78
2023-04-28T18:12:07.211Z,966.82
2023-04-28T18:13:07.407Z,966.84
2023-04-28T18:14:07.641Z,966.84
2023-04-28T18:15:07.830Z,966.89
2023-04-28T18:16:08.076Z,966.91
2023-04-28T18:17:08.235Z,966.90
2023-04-28T18:18:08.447Z,966.89
2023-04-28T18:19:08.660Z,966.91
2023-04-28T18:20:08.891Z,966.93
2023-04-28T18:21:09.095Z,966.99
2023-04-28T18:22:09.316Z,966.95
2023-04-28T18:23:09.531Z,966.93
2023-04-28T18:24:09.723Z,966.87
2023-04-28T18:25:09.928Z,966.83
2023-04-28T18:26:10.167Z,966.77
2023-04-28T18:27:10.369Z,966.75
2023-04-28T18:28:10.588Z,966.80
2023-04-28T18:29:10.798Z,966.83
2023-04-28T18:30:11.019Z,966.85
2023-04-28T18:31:11.240Z,966.90
2023-04-28T18:32:14.273Z,966.92
2023-04-28T18:33:11.677Z,966.90
2023-04-28T18:34:11.917Z,966.87
2023-04-28T18:35:12.113Z,966.81
2023-04-28T18:36:12.328Z,966.83
2023-04-28T18:37:12.564Z,966.85
2023-04-28T18:38:12.753Z,966.83
2023-04-28T18:39:12.982Z,966.84
2023-04-28T18:40:13.215Z,966.87
2023-04-28T18:41:13.420Z,966.88
2023-04-28T18:42:13.607Z,966.93
2023-04-28T18:43:13.811Z,966.95
2023-04-28T18:44:14.060Z,966.94
2023-04-28T18:45:14.257Z,967.02
2023-04-28T18:46:14.500Z,967.04
2023-04-28T18:47:14.617Z,967.10
2023-04-28T18:48:14.832Z,967.10
2023-04-28T18:49:15.045Z,967.09
2023-04-28T18:50:15.253Z,967.09
2023-04-28T18:51:15.463Z,967.06
2023-04-28T18:52:15.684Z,967.05
2023-04-28T18:53:15.917Z,967.10
2023-04-28T18:54:16.136Z,967.10
2023-04-28T18:55:16.359Z,967.12
2023-04-28T18:56:16.579Z,967.14
2023-04-28T18:57:16.768Z,967.22
2023-04-28T18:58:16.983Z,967.23
2023-04-28T18:59:17.216Z,967.32
2023-04-28T19:00:17.421Z,967.36
2023-04-28T19:01:17.656Z,967.32
2023-04-28T19:02:17.973Z,967.36
2023-04-28T19:03:18.152Z,967.33
2023-04-28T19:04:18.367Z,967.33
2023-04-28T19:05:18.354Z,967.36
2023-04-28T19:06:18.548Z,967.33
2023-04-28T19:07:18.748Z,967.31
2023-04-28T19:08:18.956Z,967.34
2023-04-28T19:09:19.188Z,967.32
2023-04-28T19:10:19.392Z,967.34
2023-04-28T19:11:19.639Z,967.32
2023-04-28T19:12:19.847Z,967.35
2023-04-28T19:13:20.081Z,967.35
2023-04-28T19:14:20.263Z,967.27
2023-04-28T19:15:20.514Z,967.23
2023-04-28T19:16:20.710Z,967.25
2023-04-28T19:17:20.927Z,967.20
2023-04-28T19:18:21.146Z,967.22
2023-04-28T19:19:21.328Z,967.20